Time;durP1;ratioP1;P1;durP2;ratioP2;P2;SDS_P1;SDS_P2;PMS_P1;PMS_P2;Temp;Humidity;BMP_temperature;BMP_pressure;BME280_temperature;BME280_humidity;BME280_pressure;Samples;Min_cycle;Max_cycle;Signal;HPM_P1;HPM_P2
2020/12/01 00:01:57;;;;;;;0.30;0.30;;;1.50;99.90;;;;;;5052552;28;20339;-62
2020/12/01 00:04:22;;;;;;;0.40;0.40;;;1.50;99.90;;;;;;5033957;28;20169;-62
2020/12/01 00:06:48;;;;;;;0.50;0.50;;;1.50;99.90;;;;;;5032755;28;20339;-62
2020/12/01 00:09:14;;;;;;;0.83;0.83;;;1.50;99.90;;;;;;5039444;28;20185;-62
2020/12/01 00:11:40;;;;;;;0.85;0.73;;;1.50;99.90;;;;;;5053342;28;20196;-62
2020/12/01 00:14:05;;;;;;;0.40;0.40;;;1.60;99.90;;;;;;5048998;28;20198;-61
2020/12/01 00:16:31;;;;;;;0.50;0.50;;;1.50;99.90;;;;;;5033902;28;20181;-61
2020/12/01 00:18:59;;;;;;;0.40;0.40;;;1.60;99.90;;;;;;5035711;28;20783;-61
2020/12/01 00:21:25;;;;;;;0.40;0.40;;;1.50;99.90;;;;;;5053061;28;20434;-61
2020/12/01 00:23:51;;;;;;;0.40;0.40;;;1.50;99.90;;;;;;5047316;28;20183;-61
2020/12/01 00:26:18;;;;;;;1.07;1.07;;;1.40;99.90;;;;;;5053762;28;20982;-62
2020/12/01 00:28:45;;;;;;;0.40;0.40;;;1.40;99.90;;;;;;5055015;28;20226;-62
2020/12/01 00:31:11;;;;;;;1.27;1.27;;;1.40;99.90;;;;;;5053570;28;20193;-61
2020/12/01 00:33:37;;;;;;;0.57;0.57;;;1.40;99.90;;;;;;5038208;28;20210;-62
2020/12/01 00:36:03;;;;;;;0.30;0.30;;;1.30;99.90;;;;;;5033417;28;20173;-62
2020/12/01 00:38:29;;;;;;;0.40;0.40;;;1.30;99.90;;;;;;5046147;28;20427;-62
2020/12/01 00:40:54;;;;;;;0.53;0.53;;;1.20;99.90;;;;;;5053115;28;20169;-61
2020/12/01 00:43:20;;;;;;;0.30;0.30;;;1.20;99.90;;;;;;5041912;28;20178;-62
2020/12/01 00:45:46;;;;;;;0.30;0.30;;;1.20;99.90;;;;;;5040200;28;20215;-61
2020/12/01 00:48:13;;;;;;;0.70;0.70;;;1.10;99.90;;;;;;5054195;28;20411;-61
2020/12/01 00:50:39;;;;;;;0.40;0.40;;;1.20;99.90;;;;;;5051585;28;20180;-62
2020/12/01 00:53:05;;;;;;;0.40;0.40;;;1.10;99.90;;;;;;5054696;28;20198;-62
2020/12/01 00:55:30;;;;;;;0.40;0.40;;;1.20;99.90;;;;;;5035707;28;20173;-62
2020/12/01 00:57:56;;;;;;;0.40;0.40;;;1.20;99.90;;;;;;5033813;28;20405;-62
2020/12/01 01:00:28;;;;;;;0.73;0.73;;;1.30;99.90;;;;;;5039171;28;20418;-62
2020/12/01 01:02:54;;;;;;;0.57;0.57;;;1.30;99.90;;;;;;5045343;28;20204;-61
2020/12/01 01:05:20;;;;;;;1.23;1.23;;;1.40;99.90;;;;;;5033290;28;20168;-61
2020/12/01 01:07:47;;;;;;;1.20;1.20;;;1.40;99.90;;;;;;5033114;28;20651;-60
2020/12/01 01:10:26;;;;;;;0.30;0.30;;;1.40;99.90;;;;;;5040024;28;20173;-60
2020/12/01 01:12:51;;;;;;;0.38;0.38;;;1.40;99.90;;;;;;5057183;28;20202;-61
2020/12/01 01:15:18;;;;;;;1.77;1.70;;;1.50;99.90;;;;;;5050985;28;20282;-61
2020/12/01 01:17:43;;;;;;;0.52;0.52;;;1.50;99.90;;;;;;5037201;28;20174;-60
2020/12/01 01:20:10;;;;;;;0.40;0.40;;;1.50;99.90;;;;;;5040988;28;20162;-63
2020/12/01 01:22:37;;;;;;;0.95;0.85;;;1.50;99.90;;;;;;5058104;28;20189;-62
2020/12/01 01:25:04;;;;;;;0.68;0.68;;;1.40;99.90;;;;;;5041842;28;20262;-62
2020/12/01 01:27:29;;;;;;;0.40;0.40;;;1.50;99.90;;;;;;5037454;28;20323;-60
2020/12/01 01:29:55;;;;;;;0.40;0.40;;;1.50;99.90;;;;;;5038684;28;20238;-60
2020/12/01 01:32:21;;;;;;;0.40;0.40;;;1.40;99.90;;;;;;5046844;28;20198;-60
2020/12/01 01:34:46;;;;;;;0.43;0.43;;;1.40;99.90;;;;;;5036481;28;20248;-60
2020/12/01 01:37:12;;;;;;;0.60;0.60;;;1.50;99.90;;;;;;5055695;28;20184;-60
2020/12/01 01:39:38;;;;;;;0.40;0.40;;;1.50;99.90;;;;;;5056909;28;20167;-59
2020/12/01 01:42:07;;;;;;;0.40;0.40;;;1.50;99.90;;;;;;5038397;28;20191;-60
2020/12/01 01:44:33;;;;;;;0.50;0.50;;;1.50;99.90;;;;;;5036875;28;20559;-61
2020/12/01 01:47:16;;;;;;;2.30;2.10;;;1.50;99.90;;;;;;5052387;28;20180;-61
2020/12/01 01:49:42;;;;;;;0.40;0.40;;;1.50;99.90;;;;;;5056243;28;20419;-62
2020/12/01 01:52:30;;;;;;;0.70;0.70;;;1.50;99.90;;;;;;5038814;28;20223;-62
2020/12/01 01:55:27;;;;;;;1.08;1.08;;;1.50;99.90;;;;;;5034650;28;20244;-61
2020/12/01 01:58:01;;;;;;;0.30;0.30;;;1.50;99.90;;;;;;5012293;28;20190;-61
2020/12/01 02:03:47;;;;;;;0.30;0.30;;;1.50;99.90;;;;;;5037093;28;20196;-62
2020/12/01 02:06:33;;;;;;;0.30;0.30;;;1.50;99.90;;;;;;5056226;28;20264;-62
2020/12/01 02:09:06;;;;;;;0.40;0.40;;;1.50;99.90;;;;;;5054990;28;20168;-62
2020/12/01 02:11:34;;;;;;;0.30;0.30;;;1.50;99.90;;;;;;5035680;28;20498;-62
2020/12/01 02:14:13;;;;;;;0.50;0.50;;;1.60;99.90;;;;;;5035774;28;20206;-62
2020/12/01 02:16:47;;;;;;;3.08;2.83;;;1.60;99.90;;;;;;5036264;28;20177;-61
2020/12/01 02:19:17;;;;;;;0.30;0.30;;;1.60;99.90;;;;;;5037382;28;20584;-61
2020/12/01 02:21:43;;;;;;;14.75;2.85;;;1.60;99.90;;;;;;5054585;28;20203;-61
2020/12/01 02:24:21;;;;;;;0.40;0.40;;;1.60;99.90;;;;;;5046024;28;20178;-61
2020/12/01 02:26:56;;;;;;;0.30;0.30;;;1.70;99.90;;;;;;5037986;28;20178;-62
2020/12/01 02:29:29;;;;;;;0.47;0.47;;;1.60;99.90;;;;;;5037517;28;20183;-61
2020/12/01 02:31:55;;;;;;;0.40;0.40;;;1.70;99.90;;;;;;5055337;28;20197;-61
2020/12/01 02:34:33;;;;;;;0.30;0.30;;;1.70;99.90;;;;;;5052865;28;20668;-61
2020/12/01 02:36:59;;;;;;;0.40;0.40;;;1.70;99.90;;;;;;5035800;28;20575;-61
2020/12/01 02:39:28;;;;;;;0.30;0.30;;;1.70;99.90;;;;;;5035663;28;20587;-60
2020/12/01 02:41:56;;;;;;;0.40;0.40;;;1.80;99.90;;;;;;5035077;28;20203;-60
2020/12/01 02:44:21;;;;;;;1.67;1.15;;;1.80;99.90;;;;;;5045708;28;20220;-62
2020/12/01 02:46:47;;;;;;;0.40;0.40;;;1.70;99.90;;;;;;5055570;28;20269;-62
2020/12/01 02:49:13;;;;;;;0.50;0.50;;;1.70;99.90;;;;;;5044226;28;20668;-61
2020/12/01 02:51:39;;;;;;;0.30;0.30;;;1.70;99.90;;;;;;5034821;28;20986;-61
2020/12/01 02:54:04;;;;;;;0.30;0.30;;;1.70;99.90;;;;;;5042036;28;20284;-63
2020/12/01 02:56:30;;;;;;;0.63;0.63;;;1.70;99.90;;;;;;5053545;28;20671;-61
2020/12/01 02:58:56;;;;;;;0.30;0.30;;;1.80;99.90;;;;;;5015573;28;20171;-61
2020/12/01 03:01:21;;;;;;;0.40;0.40;;;1.80;99.90;;;;;;5015176;28;20530;-61
2020/12/01 03:03:47;;;;;;;0.40;0.40;;;1.90;99.90;;;;;;5044676;28;20178;-61
2020/12/01 03:06:16;;;;;;;0.30;0.30;;;1.90;99.90;;;;;;5035259;28;20421;-60
2020/12/01 03:08:42;;;;;;;0.40;0.40;;;2.00;99.90;;;;;;5035274;28;20189;-60
2020/12/01 03:11:11;;;;;;;0.30;0.30;;;2.00;99.90;;;;;;5034839;28;20198;-61
2020/12/01 03:13:37;;;;;;;0.50;0.50;;;2.10;99.90;;;;;;5050018;28;20852;-61
2020/12/01 03:16:07;;;;;;;0.40;0.40;;;2.10;99.90;;;;;;5054932;28;20166;-61
2020/12/01 03:18:34;;;;;;;0.40;0.40;;;2.10;99.90;;;;;;5039601;28;20417;-60
2020/12/01 03:21:00;;;;;;;0.40;0.40;;;2.10;99.90;;;;;;5034003;28;20194;-61
2020/12/01 03:23:26;;;;;;;0.40;0.40;;;2.20;99.90;;;;;;5047708;28;20183;-61
2020/12/01 03:25:51;;;;;;;0.40;0.40;;;2.20;99.90;;;;;;5054964;28;20264;-62
2020/12/01 03:28:17;;;;;;;0.30;0.30;;;2.30;99.90;;;;;;5042741;28;20174;-62
2020/12/01 03:30:43;;;;;;;0.30;0.30;;;2.30;99.90;;;;;;5034174;28;20228;-62
2020/12/01 03:33:08;;;;;;;0.40;0.40;;;2.30;99.90;;;;;;5043050;28;20188;-62
2020/12/01 03:35:35;;;;;;;0.40;0.40;;;2.30;99.90;;;;;;5034716;28;20212;-62
2020/12/01 03:38:01;;;;;;;0.30;0.30;;;2.40;99.90;;;;;;5042446;28;20173;-62
2020/12/01 03:40:26;;;;;;;0.30;0.30;;;2.40;99.90;;;;;;5054204;28;20178;-62
2020/12/01 03:42:52;;;;;;;0.30;0.30;;;2.50;99.90;;;;;;5047501;28;20433;-62
2020/12/01 03:45:18;;;;;;;0.40;0.40;;;2.60;99.90;;;;;;5034377;28;20178;-62
2020/12/01 03:47:43;;;;;;;0.40;0.40;;;2.60;99.90;;;;;;5038187;28;20173;-62
2020/12/01 03:50:09;;;;;;;0.70;0.70;;;2.60;99.90;;;;;;5053830;28;20177;-62
2020/12/01 03:52:37;;;;;;;6.83;2.30;;;2.80;99.90;;;;;;5053338;28;20197;-63
2020/12/01 03:55:05;;;;;;;0.40;0.40;;;2.80;99.90;;;;;;5054130;28;20193;-63
2020/12/01 03:57:40;;;;;;;0.60;0.60;;;2.80;99.90;;;;;;5051760;28;20169;-62
2020/12/01 04:00:07;;;;;;;0.30;0.30;;;2.80;99.90;;;;;;5033194;28;20169;-63
2020/12/01 04:02:33;;;;;;;0.40;0.40;;;2.80;99.90;;;;;;5035299;28;20644;-62
2020/12/01 04:04:59;;;;;;;1.17;1.17;;;2.90;99.90;;;;;;5052612;28;20177;-63
2020/12/01 04:07:24;;;;;;;0.30;0.30;;;2.90;99.90;;;;;;5053464;28;20170;-63
2020/12/01 04:09:50;;;;;;;0.40;0.40;;;2.90;99.90;;;;;;5033660;28;20174;-63
2020/12/01 04:12:15;;;;;;;0.40;0.40;;;2.90;99.90;;;;;;5034099;28;20190;-62
2020/12/01 04:14:41;;;;;;;0.40;0.40;;;3.00;99.90;;;;;;5051535;28;20654;-62
2020/12/01 04:17:07;;;;;;;0.40;0.40;;;3.00;99.90;;;;;;5047516;28;20691;-63
2020/12/01 04:19:32;;;;;;;0.40;0.40;;;3.00;99.90;;;;;;5033618;28;20170;-62
2020/12/01 04:21:58;;;;;;;0.40;0.40;;;3.00;99.90;;;;;;5036743;28;20189;-63
2020/12/01 04:24:23;;;;;;;0.30;0.30;;;2.90;99.90;;;;;;5053503;28;20169;-63
2020/12/01 04:26:49;;;;;;;0.30;0.30;;;3.00;99.90;;;;;;5051146;28;20196;-63
2020/12/01 04:29:15;;;;;;;0.50;0.50;;;3.00;99.90;;;;;;5036086;28;20602;-62
2020/12/01 04:31:40;;;;;;;0.40;0.40;;;3.00;99.90;;;;;;5032808;28;20198;-63
2020/12/01 04:34:06;;;;;;;0.70;0.70;;;3.00;99.90;;;;;;5053528;28;20208;-63
2020/12/01 04:36:31;;;;;;;0.57;0.57;;;3.10;99.90;;;;;;5053597;28;20173;-62
2020/12/01 04:38:57;;;;;;;0.30;0.30;;;3.10;99.90;;;;;;5034126;28;20177;-64
2020/12/01 04:41:24;;;;;;;4.00;1.63;;;3.10;99.90;;;;;;5033018;28;20190;-62
2020/12/01 04:43:57;;;;;;;0.40;0.40;;;3.20;99.90;;;;;;5052566;28;20208;-63
2020/12/01 04:46:26;;;;;;;0.30;0.30;;;3.10;99.90;;;;;;5052590;28;20257;-62
2020/12/01 04:49:02;;;;;;;0.30;0.30;;;3.10;99.90;;;;;;5021283;28;20595;-62
2020/12/01 04:51:42;;;;;;;1.05;1.05;;;3.10;99.90;;;;;;5032734;28;20560;-63
2020/12/01 04:54:48;;;;;;;0.38;0.38;;;3.10;99.90;;;;;;5013521;28;20202;-63
2020/12/01 04:57:34;;;;;;;0.30;0.30;;;3.10;99.90;;;;;;5025467;28;20192;-62
2020/12/01 05:00:19;;;;;;;0.30;0.30;;;3.20;99.90;;;;;;5043660;28;20662;-62
2020/12/01 05:03:23;;;;;;;0.60;0.60;;;3.10;99.90;;;;;;5053224;28;20186;-62
2020/12/01 05:08:36;;;;;;;0.30;0.30;;;3.00;99.90;;;;;;5033200;28;20269;-62
2020/12/01 05:11:46;;;;;;;0.30;0.30;;;3.00;99.90;;;;;;5040899;28;20185;-61
2020/12/01 05:14:31;;;;;;;0.38;0.38;;;3.00;99.90;;;;;;5051734;28;20258;-62
2020/12/01 05:17:23;;;;;;;0.40;0.40;;;3.00;99.90;;;;;;5036920;28;20185;-62
2020/12/01 05:19:48;;;;;;;0.30;0.30;;;3.00;99.90;;;;;;5002049;28;20281;-62
2020/12/01 05:22:18;;;;;;;0.30;0.30;;;3.00;99.90;;;;;;5048314;28;20283;-61
2020/12/01 05:24:49;;;;;;;0.30;0.30;;;3.00;99.90;;;;;;5053028;28;20256;-61
2020/12/01 05:27:24;;;;;;;1.02;1.02;;;3.00;99.90;;;;;;5035092;28;20178;-63
2020/12/01 05:30:18;;;;;;;0.40;0.40;;;3.00;99.90;;;;;;5032649;28;20208;-64
2020/12/01 05:33:06;;;;;;;0.40;0.40;;;3.00;99.90;;;;;;5013298;28;20199;-62
2020/12/01 05:35:34;;;;;;;1.10;1.10;;;3.00;99.90;;;;;;5016774;28;20549;-63
2020/12/01 05:38:15;;;;;;;2.97;2.88;;;3.00;99.90;;;;;;5052713;28;20173;-63
2020/12/01 05:40:57;;;;;;;0.40;0.40;;;3.00;99.90;;;;;;5049712;28;20185;-62
2020/12/01 05:43:29;;;;;;;0.30;0.30;;;3.00;99.90;;;;;;5031668;28;20179;-62
2020/12/01 05:46:13;;;;;;;0.60;0.60;;;3.00;99.90;;;;;;5033718;28;20202;-62
2020/12/01 05:48:49;;;;;;;0.30;0.30;;;2.90;99.90;;;;;;5032328;28;20169;-62
2020/12/01 05:51:20;;;;;;;0.40;0.40;;;2.90;99.90;;;;;;5032338;28;20197;-62
2020/12/01 05:53:55;;;;;;;1.10;0.77;;;2.90;99.90;;;;;;5031616;28;20256;-62
2020/12/01 05:56:21;;;;;;;0.30;0.30;;;2.90;99.90;;;;;;5032883;28;20178;-63
2020/12/01 05:58:58;;;;;;;0.87;0.87;;;2.90;99.90;;;;;;5036393;28;20178;-61
2020/12/01 06:01:24;;;;;;;0.30;0.30;;;2.90;99.90;;;;;;5047032;28;20193;-62
2020/12/01 06:04:01;;;;;;;0.40;0.40;;;3.00;99.90;;;;;;5056322;28;20165;-63
2020/12/01 06:06:36;;;;;;;2.95;0.60;;;3.00;99.90;;;;;;5040506;28;20177;-61
2020/12/01 06:09:21;;;;;;;1.48;1.38;;;3.00;99.90;;;;;;5039839;28;20185;-64
2020/12/01 06:11:58;;;;;;;0.30;0.30;;;3.10;99.90;;;;;;5055750;28;20207;-63
2020/12/01 06:14:42;;;;;;;0.30;0.30;;;3.10;99.90;;;;;;5040024;28;20208;-61
2020/12/01 06:17:22;;;;;;;0.30;0.30;;;3.00;99.90;;;;;;5035999;28;20166;-63
2020/12/01 06:20:07;;;;;;;1.90;1.73;;;3.00;99.90;;;;;;5035508;28;20227;-63
2020/12/01 06:22:56;;;;;;;0.30;0.30;;;3.00;99.90;;;;;;5048029;28;20219;-63
2020/12/01 06:25:34;;;;;;;0.30;0.30;;;3.10;99.90;;;;;;5035728;28;20209;-62
2020/12/01 06:28:10;;;;;;;0.30;0.30;;;3.10;99.90;;;;;;5035827;28;20173;-61
2020/12/01 06:31:19;;;;;;;0.40;0.40;;;3.10;99.90;;;;;;5035588;28;20186;-63
2020/12/01 06:34:00;;;;;;;2.00;1.95;;;3.10;99.90;;;;;;5016126;28;20199;-62
2020/12/01 06:36:56;;;;;;;0.40;0.40;;;3.10;99.90;;;;;;5035142;28;20189;-62
2020/12/01 06:39:28;;;;;;;0.40;0.40;;;3.10;99.90;;;;;;5044982;28;20234;-63
2020/12/01 06:42:10;;;;;;;0.30;0.30;;;3.10;99.90;;;;;;5035248;28;20213;-61
2020/12/01 06:44:38;;;;;;;0.40;0.40;;;3.10;99.90;;;;;;5035129;28;20185;-64
2020/12/01 06:47:03;;;;;;;0.60;0.60;;;3.10;99.90;;;;;;5034520;28;20206;-64
2020/12/01 06:49:31;;;;;;;0.40;0.40;;;3.10;99.90;;;;;;5043358;28;20259;-65
2020/12/01 06:52:06;;;;;;;0.30;0.30;;;3.10;99.90;;;;;;5053374;28;20575;-66
2020/12/01 06:54:32;;;;;;;0.30;0.30;;;3.20;99.90;;;;;;5047136;28;20197;-66
2020/12/01 06:57:06;;;;;;;0.30;0.30;;;3.20;99.90;;;;;;5035455;28;20170;-67
2020/12/01 06:59:32;;;;;;;3.90;0.82;;;3.20;99.90;;;;;;5042103;28;20177;-63
2020/12/01 07:02:17;;;;;;;0.43;0.43;;;3.20;99.90;;;;;;5054611;28;20196;-63
2020/12/01 07:04:43;;;;;;;0.40;0.40;;;3.10;99.90;;;;;;5040508;28;20421;-65
2020/12/01 07:07:30;;;;;;;0.40;0.40;;;3.10;99.90;;;;;;5034807;28;20280;-65
2020/12/01 07:09:56;;;;;;;1.58;1.48;;;3.20;99.90;;;;;;5043685;28;20419;-66
2020/12/01 07:12:49;;;;;;;0.50;0.50;;;3.20;99.90;;;;;;5051673;28;20304;-65
2020/12/01 07:15:29;;;;;;;0.50;0.50;;;3.10;99.90;;;;;;5038762;28;20193;-64
2020/12/01 07:18:11;;;;;;;0.30;0.30;;;3.20;99.90;;;;;;5046694;28;20198;-69
2020/12/01 07:21:20;;;;;;;0.40;0.40;;;3.20;99.90;;;;;;5032463;28;20177;-69
2020/12/01 07:23:54;;;;;;;0.40;0.40;;;3.20;99.90;;;;;;5022697;28;20671;-68
2020/12/01 07:27:08;;;;;;;0.40;0.40;;;3.20;99.90;;;;;;5033563;28;20644;-65
2020/12/01 07:29:52;;;;;;;0.40;0.40;;;3.20;99.90;;;;;;5021216;28;20194;-65
2020/12/01 07:32:22;;;;;;;0.30;0.30;;;3.10;99.90;;;;;;5032402;28;20186;-65
2020/12/01 07:35:02;;;;;;;0.95;0.95;;;3.10;99.90;;;;;;5030895;28;20197;-67
2020/12/01 07:37:55;;;;;;;0.50;0.50;;;3.10;99.90;;;;;;5030893;28;20181;-65
2020/12/01 07:40:30;;;;;;;0.30;0.30;;;3.20;99.90;;;;;;5032214;28;20174;-64
2020/12/01 07:43:02;;;;;;;1.60;1.50;;;3.20;99.90;;;;;;5033269;28;20690;-67
2020/12/01 07:45:30;;;;;;;0.40;0.40;;;3.20;99.90;;;;;;5034685;28;20221;-66
2020/12/01 07:48:01;;;;;;;0.50;0.50;;;3.20;99.90;;;;;;5034511;28;20173;-67
2020/12/01 07:50:29;;;;;;;0.30;0.30;;;3.20;99.90;;;;;;5034333;28;20178;-66
2020/12/01 07:53:19;;;;;;;0.32;0.32;;;3.10;99.90;;;;;;5034293;28;20577;-66
2020/12/01 07:56:14;;;;;;;0.30;0.30;;;3.10;99.90;;;;;;5034226;28;20197;-67
2020/12/01 07:58:40;;;;;;;1.35;1.35;;;3.10;99.90;;;;;;5029390;28;20522;-65
2020/12/01 08:01:16;;;;;;;0.40;0.40;;;3.10;99.90;;;;;;5033729;28;20213;-69
2020/12/01 08:03:42;;;;;;;0.60;0.60;;;3.00;99.90;;;;;;5034507;28;20174;-66
2020/12/01 08:06:14;;;;;;;0.30;0.30;;;3.00;99.90;;;;;;5034019;28;20169;-64
2020/12/01 08:08:43;;;;;;;0.30;0.30;;;3.00;99.90;;;;;;5034181;28;20440;-66
2020/12/01 08:11:14;;;;;;;0.30;0.30;;;3.00;99.90;;;;;;5033519;28;20696;-64
2020/12/01 08:13:41;;;;;;;0.40;0.40;;;3.00;99.90;;;;;;5033969;28;20222;-67
2020/12/01 08:16:28;;;;;;;0.40;0.40;;;2.90;99.90;;;;;;5033906;28;20633;-68
2020/12/01 08:18:54;;;;;;;1.35;1.27;;;2.90;99.90;;;;;;5032861;28;20182;-67
2020/12/01 08:21:33;;;;;;;0.40;0.40;;;2.90;99.90;;;;;;5033397;28;20201;-60
2020/12/01 08:24:02;;;;;;;0.60;0.60;;;2.90;99.90;;;;;;5032623;28;20259;-63
2020/12/01 08:26:35;;;;;;;1.05;1.05;;;2.90;99.90;;;;;;5033971;28;20186;-64
2020/12/01 08:29:21;;;;;;;0.40;0.40;;;2.90;99.90;;;;;;5033488;28;20174;-63
2020/12/01 08:31:57;;;;;;;0.30;0.30;;;2.90;99.90;;;;;;5033313;28;20568;-63
2020/12/01 08:34:35;;;;;;;0.30;0.30;;;2.90;99.90;;;;;;5034404;28;20661;-63
2020/12/01 08:37:12;;;;;;;0.30;0.30;;;2.90;99.90;;;;;;5033872;28;20174;-64
2020/12/01 08:39:58;;;;;;;0.70;0.70;;;3.00;99.90;;;;;;5033515;28;20619;-68
2020/12/01 08:43:02;;;;;;;0.30;0.30;;;3.00;99.90;;;;;;5033596;28;20185;-63
2020/12/01 08:45:37;;;;;;;0.30;0.20;;;3.00;99.90;;;;;;5033223;28;20196;-65
2020/12/01 08:48:06;;;;;;;0.40;0.40;;;3.00;99.90;;;;;;5033254;28;20173;-64
2020/12/01 08:50:38;;;;;;;0.52;0.52;;;3.10;99.90;;;;;;5033124;28;20196;-64
2020/12/01 08:53:20;;;;;;;0.30;0.30;;;3.20;99.90;;;;;;5032991;28;20233;-65
2020/12/01 08:55:48;;;;;;;0.40;0.40;;;3.10;99.90;;;;;;5033326;28;20663;-66
2020/12/01 08:58:32;;;;;;;2.45;1.38;;;3.10;99.90;;;;;;5032812;28;20197;-63
2020/12/01 09:00:58;;;;;;;1.33;1.25;;;3.00;99.90;;;;;;5013072;28;20170;-62
2020/12/01 09:03:24;;;;;;;0.30;0.30;;;3.00;99.90;;;;;;5013492;28;20171;-64
2020/12/01 09:05:50;;;;;;;0.30;0.30;;;3.10;99.90;;;;;;5013441;28;20216;-65
2020/12/01 09:11:49;;;;;;;0.30;0.30;;;3.10;99.90;;;;;;5013092;28;20190;-65
2020/12/01 09:17:20;;;;;;;0.55;0.55;;;3.10;99.90;;;;;;5013714;28;20537;-64
2020/12/01 09:22:29;;;;;;;1.40;1.30;;;3.10;99.90;;;;;;5013328;28;20553;-65
2020/12/01 09:25:15;;;;;;;0.40;0.40;;;3.10;99.90;;;;;;5013410;28;20194;-63
2020/12/01 09:27:41;;;;;;;0.30;0.30;;;3.00;99.90;;;;;;5013390;28;20179;-64
2020/12/01 09:30:15;;;;;;;1.00;1.00;;;3.10;99.90;;;;;;5028691;28;20184;-63
2020/12/01 09:32:41;;;;;;;0.50;0.50;;;3.10;99.90;;;;;;5037064;28;20587;-64
2020/12/01 09:35:07;;;;;;;0.40;0.40;;;3.10;99.90;;;;;;5036777;28;20193;-63
2020/12/01 09:37:33;;;;;;;0.30;0.30;;;3.20;99.90;;;;;;5035640;28;20169;-65
2020/12/01 09:39:58;;;;;;;0.30;0.30;;;3.20;99.90;;;;;;5036477;28;20170;-64
2020/12/01 09:42:31;;;;;;;0.90;0.90;;;3.20;99.90;;;;;;5036863;28;20194;-63
2020/12/01 09:47:36;;;;;;;0.50;0.50;;;3.20;99.90;;;;;;5036924;28;20170;-62
2020/12/01 09:50:04;;;;;;;0.40;0.40;;;3.30;99.90;;;;;;5036424;28;20174;-63
2020/12/01 09:52:40;;;;;;;0.30;0.30;;;3.20;99.90;;;;;;5034993;28;20685;-63
2020/12/01 09:55:54;;;;;;;0.40;0.40;;;3.30;99.90;;;;;;5035250;28;20562;-62
2020/12/01 10:35:44;;;;;;;0.30;0.30;;;3.30;99.90;;;;;;5036051;28;20596;-65
2020/12/01 10:38:10;;;;;;;1.23;1.13;;;3.30;99.90;;;;;;5035874;28;20245;-66
2020/12/01 10:40:35;;;;;;;0.40;0.40;;;3.30;99.90;;;;;;5037600;28;20655;-66
2020/12/01 10:43:01;;;;;;;0.40;0.40;;;3.40;99.90;;;;;;5035550;28;20182;-65
2020/12/01 10:45:28;;;;;;;0.30;0.30;;;3.40;99.90;;;;;;5034814;28;20170;-65
2020/12/01 10:47:54;;;;;;;0.45;0.45;;;3.50;99.90;;;;;;5034068;28;20170;-63
2020/12/01 10:50:29;;;;;;;0.40;0.40;;;3.50;99.90;;;;;;5033017;28;20649;-64
2020/12/01 10:52:55;;;;;;;0.40;0.40;;;3.50;99.90;;;;;;5033722;28;20296;-63
2020/12/01 10:55:28;;;;;;;0.40;0.40;;;3.50;99.90;;;;;;5031528;28;20198;-64
2020/12/01 10:57:54;;;;;;;1.30;1.20;;;3.60;99.90;;;;;;5033763;28;20178;-63
2020/12/01 11:00:22;;;;;;;0.30;0.30;;;3.60;99.90;;;;;;5032213;28;20181;-64
2020/12/01 11:02:49;;;;;;;0.30;0.30;;;3.60;99.90;;;;;;5032461;28;20347;-64
2020/12/01 11:05:26;;;;;;;0.30;0.30;;;3.60;99.90;;;;;;5033554;28;20174;-63
2020/12/01 11:07:51;;;;;;;0.60;0.60;;;3.50;99.90;;;;;;5032608;28;20564;-65
2020/12/01 11:10:17;;;;;;;0.30;0.30;;;3.50;99.90;;;;;;5033254;28;20239;-66
2020/12/01 11:12:43;;;;;;;0.30;0.30;;;3.70;99.90;;;;;;5033566;28;20292;-65
2020/12/01 11:15:09;;;;;;;0.30;0.30;;;3.70;99.90;;;;;;5033805;28;20194;-62
2020/12/01 11:17:35;;;;;;;0.50;0.50;;;3.70;99.90;;;;;;5033395;28;20413;-64
2020/12/01 11:20:01;;;;;;;1.43;1.37;;;3.60;99.90;;;;;;5030456;28;20170;-63
2020/12/01 11:22:29;;;;;;;0.40;0.40;;;3.60;99.90;;;;;;5033336;28;20178;-63
2020/12/01 11:24:55;;;;;;;0.30;0.30;;;3.60;99.90;;;;;;5033297;28;20190;-63
2020/12/01 11:27:20;;;;;;;0.30;0.30;;;3.70;99.90;;;;;;5033418;28;20177;-62
2020/12/01 11:29:46;;;;;;;0.57;0.57;;;3.70;99.90;;;;;;5032978;28;20170;-62
2020/12/01 11:32:12;;;;;;;0.30;0.30;;;3.60;99.90;;;;;;5033430;28;20235;-63
2020/12/01 11:34:37;;;;;;;0.40;0.40;;;3.60;99.90;;;;;;5033920;28;20196;-63
2020/12/01 11:37:03;;;;;;;0.70;0.70;;;3.50;99.90;;;;;;5035091;28;20170;-62
2020/12/01 11:39:29;;;;;;;0.30;0.30;;;3.60;99.90;;;;;;5034643;28;20691;-62
2020/12/01 11:41:54;;;;;;;0.50;0.50;;;3.60;99.90;;;;;;5033595;28;20605;-63
2020/12/01 11:44:20;;;;;;;0.30;0.30;;;3.70;99.90;;;;;;5034361;28;20209;-62
2020/12/01 11:46:46;;;;;;;0.30;0.30;;;3.70;99.90;;;;;;5033851;28;20178;-62
2020/12/01 11:49:12;;;;;;;0.30;0.30;;;3.70;99.90;;;;;;5034541;28;20292;-65
2020/12/01 11:51:40;;;;;;;0.40;0.40;;;3.80;99.90;;;;;;5033948;28;20194;-63
2020/12/01 11:54:10;;;;;;;0.30;0.30;;;3.80;99.90;;;;;;5032964;28;20202;-62
2020/12/01 11:56:37;;;;;;;0.50;0.50;;;3.70;99.90;;;;;;5033784;28;20182;-61
2020/12/01 11:59:03;;;;;;;0.40;0.40;;;3.80;99.90;;;;;;5034000;28;20178;-62
2020/12/01 12:01:29;;;;;;;1.17;1.07;;;3.70;99.90;;;;;;5033354;28;20243;-60
2020/12/01 12:03:54;;;;;;;0.30;0.30;;;3.80;99.90;;;;;;5033674;28;20416;-61
2020/12/01 12:06:20;;;;;;;0.30;0.30;;;3.80;99.90;;;;;;5033791;28;20645;-61
2020/12/01 12:08:46;;;;;;;0.40;0.40;;;3.80;99.90;;;;;;5033982;28;20184;-61
2020/12/01 12:11:12;;;;;;;0.30;0.30;;;3.80;99.90;;;;;;5033340;28;20194;-62
2020/12/01 12:13:38;;;;;;;0.30;0.30;;;3.80;99.90;;;;;;5033731;28;20167;-63
2020/12/01 12:16:04;;;;;;;0.93;0.90;;;3.90;99.90;;;;;;5033252;28;20269;-63
2020/12/01 12:18:29;;;;;;;0.30;0.30;;;3.80;99.90;;;;;;5033495;28;20401;-64
2020/12/01 12:20:55;;;;;;;0.40;0.40;;;3.80;99.90;;;;;;5033226;28;20419;-61
2020/12/01 12:23:24;;;;;;;2.47;2.30;;;3.80;99.90;;;;;;5033776;28;20699;-62
2020/12/01 12:25:49;;;;;;;0.50;0.50;;;3.70;99.90;;;;;;5033417;28;20256;-62
2020/12/01 12:28:15;;;;;;;0.40;0.40;;;3.80;99.90;;;;;;5033418;28;20265;-64
2020/12/01 12:30:42;;;;;;;0.43;0.43;;;3.80;99.90;;;;;;5032986;28;20224;-64
2020/12/01 12:33:07;;;;;;;0.30;0.30;;;3.80;99.90;;;;;;5033274;28;20244;-65
2020/12/01 12:35:33;;;;;;;1.13;1.07;;;3.80;99.90;;;;;;5033194;28;20198;-63
2020/12/01 12:37:59;;;;;;;0.63;0.63;;;3.80;99.90;;;;;;5033286;28;20173;-62
2020/12/01 12:40:24;;;;;;;0.30;0.30;;;3.90;99.90;;;;;;5032761;28;20174;-61
2020/12/01 12:42:50;;;;;;;3.03;2.23;;;4.00;99.90;;;;;;5031893;28;20197;-63
2020/12/01 12:45:17;;;;;;;1.63;1.23;;;4.10;99.90;;;;;;5033410;28;20173;-64
2020/12/01 12:47:42;;;;;;;0.40;0.40;;;4.10;99.90;;;;;;5032815;28;20311;-64
2020/12/01 12:50:08;;;;;;;0.30;0.30;;;4.20;99.90;;;;;;5033098;28;20212;-61
2020/12/01 12:52:34;;;;;;;0.40;0.40;;;4.20;99.90;;;;;;5033221;28;20692;-65
2020/12/01 12:55:00;;;;;;;0.30;0.30;;;4.20;99.90;;;;;;5033786;28;20209;-61
2020/12/01 12:57:26;;;;;;;0.30;0.30;;;4.20;99.90;;;;;;5033780;28;20522;-63
2020/12/01 12:59:52;;;;;;;0.30;0.30;;;4.20;99.90;;;;;;5035047;28;20170;-61
2020/12/01 13:02:17;;;;;;;0.30;0.30;;;4.20;99.90;;;;;;5033511;28;20482;-65
2020/12/01 13:04:43;;;;;;;0.60;0.57;;;4.20;99.90;;;;;;5033029;28;20420;-61
2020/12/01 13:07:08;;;;;;;0.40;0.40;;;4.20;99.90;;;;;;5032903;28;20175;-60
2020/12/01 13:09:34;;;;;;;1.40;1.40;;;4.10;99.90;;;;;;5033371;28;20170;-65
2020/12/01 13:12:00;;;;;;;2.20;0.90;;;4.10;99.90;;;;;;5032992;28;20293;-63
2020/12/01 13:14:26;;;;;;;0.40;0.40;;;4.00;99.90;;;;;;5033272;28;20197;-64
2020/12/01 13:16:53;;;;;;;0.60;0.60;;;4.00;99.90;;;;;;5033006;28;20181;-64
2020/12/01 13:19:20;;;;;;;0.82;0.70;;;4.00;99.90;;;;;;5033094;28;20189;-66
2020/12/01 13:21:46;;;;;;;0.30;0.30;;;4.00;99.90;;;;;;5032797;28;20197;-65
2020/12/01 13:24:13;;;;;;;0.30;0.30;;;3.90;99.90;;;;;;5033193;28;20178;-67
2020/12/01 13:26:39;;;;;;;1.38;0.70;;;3.90;99.90;;;;;;5032057;28;20177;-67
2020/12/01 13:29:05;;;;;;;0.30;0.30;;;3.90;99.90;;;;;;5030976;28;20525;-65
2020/12/01 13:31:31;;;;;;;0.40;0.40;;;3.80;99.90;;;;;;5031867;28;20444;-66
2020/12/01 13:33:57;;;;;;;0.82;0.82;;;3.80;99.90;;;;;;5031893;28;20748;-67
2020/12/01 13:36:25;;;;;;;0.37;0.37;;;3.70;99.90;;;;;;5032338;28;20313;-65
2020/12/01 13:38:51;;;;;;;0.30;0.30;;;3.70;99.90;;;;;;5032508;28;20412;-65
2020/12/01 13:41:17;;;;;;;0.30;0.30;;;3.70;99.90;;;;;;5032210;28;20192;-65
2020/12/01 13:43:43;;;;;;;2.25;1.92;;;3.60;99.90;;;;;;5032477;28;20181;-65
2020/12/01 13:46:08;;;;;;;0.30;0.30;;;3.60;99.90;;;;;;5033158;28;20182;-64
2020/12/01 13:48:35;;;;;;;0.50;0.50;;;3.60;99.90;;;;;;5032988;28;20197;-66
2020/12/01 13:51:01;;;;;;;0.95;0.95;;;3.50;99.90;;;;;;5032382;28;20190;-66
2020/12/01 13:53:27;;;;;;;1.02;1.02;;;3.50;99.90;;;;;;5032481;28;20276;-65
2020/12/01 13:55:53;;;;;;;0.35;0.35;;;3.50;99.90;;;;;;5033033;28;20198;-66
2020/12/01 13:58:19;;;;;;;0.40;0.40;;;3.60;99.90;;;;;;5032917;28;20205;-67
2020/12/01 14:00:45;;;;;;;1.43;1.43;;;3.60;99.90;;;;;;5032196;28;20170;-65
2020/12/01 14:03:10;;;;;;;0.30;0.30;;;3.60;99.90;;;;;;5032447;28;20178;-63
2020/12/01 14:05:37;;;;;;;0.30;0.30;;;3.50;99.90;;;;;;5032395;28;20201;-64
2020/12/01 14:08:03;;;;;;;0.30;0.30;;;3.50;99.90;;;;;;5032744;28;20463;-65
2020/12/01 14:10:29;;;;;;;0.30;0.30;;;3.50;99.90;;;;;;5032404;28;20572;-65
2020/12/01 14:12:55;;;;;;;0.97;0.97;;;3.50;99.90;;;;;;5032511;28;20999;-67